BGSFBGSF

Guest
Details From BGSF - Kangerlussuaq
To BGSF - Kangerlussuaq
Flight Number -
Tags Decoded
Created
Modified
Stats Distance 7 nm / 13 km
Max Altitude 0 ft / 0 m
Waypoints 2
Social Downloads 2
Likes 0
Share VATSIM

Download

Looking for another format? Having issues loading an existing format? Contact us
Advertisement - Login to hide

Notes

Decoded

Route

SUKAK BGSF

ID Type Via Altitude Latitude Longitude Leg Dist Tot Dist Heading (true) Name
O SUKAK FIX - 0 ft / 0 m 66.94250˚ -50.48917˚ - 0 nm - -
O BGSF APT - 0 ft / 0 m 67.00561˚ -50.74307˚ 7 nm 7 nm 303° / 302° -

Altitude Profile

Advertisement - Login to hide

BGSF

Details ICAO BGSF (SFJ)
Name Kangerlussuaq
Region Greenland
Timezone America/Godthab (UTC-3.0)
Stats Elevation 165 ft / 50 m (AMSL)
Location 67.011605° -50.714721°
Runways 2
Magnetic Variation 29.032° W

METAR

BGSF 170950Z AUTO 06006KT 8000NDV -SN FEW030/// BKN070/// M06/M08 Q0990

Decode

TAF

TAF AMD BGSF 170127Z 1701/1723 06008KT 9999 SCT020 BKN060 TEMPO 1701/1712 1200 -SN BKN008 BECMG 1712/1715 SCT120 TEMPO 1715/1723 BKN080

Decode

Departure Runways

ID Width Length Bearing (true) Bearing (mag) Surface Threshold Offset Overrun Length
09 197 ft / 60 m 9,169 ft / 2,795 m 61.57° 90.60° Asphalt 0 ft / 0 m 509 ft / 155 m
10 197 ft / 60 m 9,187 ft / 2,800 m 61.55° 90.58° Asphalt 0 ft / 0 m 0 ft / 0 m
27 197 ft / 60 m 9,169 ft / 2,795 m 241.63° 270.66° Asphalt 0 ft / 0 m 171 ft / 52 m
28 197 ft / 60 m 9,187 ft / 2,800 m 241.60° 270.63° Asphalt 0 ft / 0 m 0 ft / 0 m

BGSF

Details ICAO BGSF (SFJ)
Name Kangerlussuaq
Region Greenland
Timezone America/Godthab (UTC-3.0)
Stats Elevation 165 ft / 50 m (AMSL)
Location 67.011605° -50.714721°
Runways 2
Magnetic Variation 29.032° W

METAR

BGSF 170950Z AUTO 06006KT 8000NDV -SN FEW030/// BKN070/// M06/M08 Q0990

Decode

TAF

TAF AMD BGSF 170127Z 1701/1723 06008KT 9999 SCT020 BKN060 TEMPO 1701/1712 1200 -SN BKN008 BECMG 1712/1715 SCT120 TEMPO 1715/1723 BKN080

Decode

Destination Runways

ID Width Length Bearing (true) Bearing (mag) Surface Threshold Offset Overrun Length
09 197 ft / 60 m 9,169 ft / 2,795 m 61.57° 90.60° Asphalt 0 ft / 0 m 509 ft / 155 m
10 197 ft / 60 m 9,187 ft / 2,800 m 61.55° 90.58° Asphalt 0 ft / 0 m 0 ft / 0 m
27 197 ft / 60 m 9,169 ft / 2,795 m 241.63° 270.66° Asphalt 0 ft / 0 m 171 ft / 52 m
28 197 ft / 60 m 9,187 ft / 2,800 m 241.60° 270.63° Asphalt 0 ft / 0 m 0 ft / 0 m

Approach Navaids

Runway Type Ident Frequency Range Bearing (true) Bearing (mag) Slope Elevation
10 Localiser ISF 109.55 MHz 18 nm / 33 km 61.60° 90.63° - 165 ft / 50 m (AMSL)
10 DME ISF 109.55 MHz 18 nm / 33 km - - - 172 ft / 52 m (AMSL)